PHKEL EHAM-EHAM
Flight info
| Callsign | PHKEL |
|---|---|
| Flight time | 0h 8m |
| Altitude | 1000 |
| Route | VFR |
| Aircraft | C172/L-SD/L1 |
Departure
| Time | 2026-05-05 16:38 |
|---|---|
| Airport | Amsterdam Airport Schiphol (EHAM) |
Arrival
| Time | 2026-05-05 16:46 |
|---|---|
| Airport | Amsterdam Airport Schiphol (EHAM) |
| Time | Latitude | Longitude | Altitude | Speed | Heading |
|---|---|---|---|---|---|
| 2026-05-05 16:05 | 52.31190 | 4.80462 | -6 ft | 0 kts | 132° |
| 2026-05-05 16:11 | 52.31171 | 4.80499 | -6 ft | 0 kts | 85° |
| 2026-05-05 16:12 | 52.31190 | 4.80521 | -6 ft | 8 kts | 34° |
| 2026-05-05 16:12 | 52.31197 | 4.80354 | -6 ft | 22 kts | 220° |
| 2026-05-05 16:13 | 52.30827 | 4.79799 | -6 ft | 15 kts | 264° |
| 2026-05-05 16:13 | 52.30856 | 4.79707 | -6 ft | 0 kts | 320° |
| 2026-05-05 16:13 | 52.30858 | 4.79704 | -6 ft | 0 kts | 316° |
| 2026-05-05 16:14 | 52.30936 | 4.79630 | -6 ft | 7 kts | 37° |
| 2026-05-05 16:14 | 52.31142 | 4.79924 | 5 ft | 56 kts | 36° |
| 2026-05-05 16:15 | 52.31110 | 4.81310 | 245 ft | 87 kts | 117° |
| 2026-05-05 16:15 | 52.29969 | 4.80698 | 365 ft | 112 kts | 222° |
| 2026-05-05 16:16 | 52.29516 | 4.78911 | 268 ft | 75 kts | 310° |
| 2026-05-05 16:16 | 52.30343 | 4.78791 | 17 ft | 71 kts | 34° |
| 2026-05-05 16:17 | 52.30680 | 4.79966 | 230 ft | 86 kts | 125° |
| 2026-05-05 16:17 | 52.30141 | 4.80321 | 407 ft | 107 kts | 211° |
| 2026-05-05 16:18 | 52.29676 | 4.78516 | 262 ft | 82 kts | 313° |
| 2026-05-05 16:18 | 52.30091 | 4.78425 | 47 ft | 65 kts | 39° |
| 2026-05-05 16:18 | 52.30593 | 4.79126 | -5 ft | 57 kts | 44° |
| 2026-05-05 16:19 | 52.30929 | 4.79648 | 87 ft | 79 kts | 37° |
| 2026-05-05 16:19 | 52.31324 | 4.80358 | 206 ft | 104 kts | 84° |
| 2026-05-05 16:19 | 52.30186 | 4.81017 | 377 ft | 119 kts | 227° |
| 2026-05-05 16:20 | 52.29536 | 4.78910 | 244 ft | 99 kts | 307° |
| 2026-05-05 16:20 | 52.30333 | 4.78776 | -6 ft | 49 kts | 38° |
| 2026-05-05 16:21 | 52.30526 | 4.79976 | 247 ft | 89 kts | 121° |
| 2026-05-05 16:22 | 52.29665 | 4.78530 | 215 ft | 70 kts | 315° |
| 2026-05-05 16:22 | 52.30325 | 4.78758 | -6 ft | 34 kts | 40° |
| 2026-05-05 16:23 | 52.30394 | 4.78851 | -6 ft | 0 kts | 40° |
| 2026-05-05 16:24 | 52.30418 | 4.78885 | -6 ft | 24 kts | 36° |
| 2026-05-05 16:24 | 52.30787 | 4.79860 | 243 ft | 78 kts | 114° |
| 2026-05-05 16:25 | 52.30263 | 4.80251 | 353 ft | 110 kts | 214° |
| 2026-05-05 16:25 | 52.29658 | 4.78540 | 314 ft | 75 kts | 315° |
| 2026-05-05 16:25 | 52.30098 | 4.78437 | 76 ft | 78 kts | 36° |
| 2026-05-05 16:26 | 52.30728 | 4.79337 | 2 ft | 70 kts | 40° |
| 2026-05-05 16:26 | 52.30068 | 4.80136 | 387 ft | 104 kts | 216° |
| 2026-05-05 16:27 | 52.29484 | 4.79294 | 360 ft | 117 kts | 249° |
| 2026-05-05 16:27 | 52.29762 | 4.78311 | 219 ft | 90 kts | 329° |
| 2026-05-05 16:27 | 52.30230 | 4.78638 | 27 ft | 77 kts | 38° |
| 2026-05-05 16:27 | 52.30584 | 4.79132 | -6 ft | 56 kts | 35° |
| 2026-05-05 16:28 | 52.30907 | 4.79598 | 136 ft | 73 kts | 45° |
| 2026-05-05 16:28 | 52.31291 | 4.80225 | 336 ft | 84 kts | 44° |
| 2026-05-05 16:28 | 52.31059 | 4.81163 | 487 ft | 107 kts | 131° |
| 2026-05-05 16:28 | 52.30354 | 4.80815 | 478 ft | 124 kts | 225° |
| 2026-05-05 16:29 | 52.30157 | 4.79865 | 329 ft | 87 kts | 306° |
| 2026-05-05 16:29 | 52.30508 | 4.79161 | 106 ft | 69 kts | 344° |
| 2026-05-05 16:29 | 52.30847 | 4.79511 | -6 ft | 48 kts | 43° |
| 2026-05-05 16:29 | 52.30935 | 4.79642 | -6 ft | 1 kts | 26° |
| 2026-05-05 16:30 | 52.30941 | 4.79648 | -6 ft | 0 kts | 37° |
| 2026-05-05 16:31 | 52.30944 | 4.79652 | -6 ft | 9 kts | 32° |
| 2026-05-05 16:31 | 52.31152 | 4.79947 | 17 ft | 62 kts | 42° |
| 2026-05-05 16:31 | 52.31287 | 4.80650 | 202 ft | 88 kts | 122° |
| 2026-05-05 16:31 | 52.30832 | 4.81353 | 413 ft | 102 kts | 163° |
| 2026-05-05 16:32 | 52.30400 | 4.80766 | 415 ft | 80 kts | 247° |
| 2026-05-05 16:32 | 52.29995 | 4.80079 | 376 ft | 92 kts | 273° |
| 2026-05-05 16:32 | 52.30233 | 4.79049 | 186 ft | 99 kts | 316° |
| 2026-05-05 16:32 | 52.30730 | 4.79358 | 14 ft | 79 kts | 33° |
| 2026-05-05 16:33 | 52.31100 | 4.79888 | 35 ft | 70 kts | 37° |
| 2026-05-05 16:33 | 52.31423 | 4.80587 | 228 ft | 91 kts | 71° |
| 2026-05-05 16:33 | 52.31033 | 4.81483 | 375 ft | 113 kts | 165° |
| 2026-05-05 16:33 | 52.30383 | 4.80868 | 420 ft | 113 kts | 225° |
| 2026-05-05 16:34 | 52.29835 | 4.79968 | 391 ft | 100 kts | 242° |
| 2026-05-05 16:34 | 52.30051 | 4.79204 | 228 ft | 86 kts | 328° |
| 2026-05-05 16:34 | 52.30546 | 4.79075 | 27 ft | 73 kts | 36° |
| 2026-05-05 16:34 | 52.30867 | 4.79527 | 3 ft | 57 kts | 38° |
| 2026-05-05 16:35 | 52.31187 | 4.80067 | 147 ft | 78 kts | 37° |
| 2026-05-05 16:35 | 52.31173 | 4.80834 | 323 ft | 95 kts | 129° |
| 2026-05-05 16:35 | 52.30566 | 4.81433 | 455 ft | 113 kts | 187° |
| 2026-05-05 16:35 | 52.29951 | 4.80535 | 483 ft | 127 kts | 223° |
| 2026-05-05 16:36 | 52.29310 | 4.79630 | 484 ft | 117 kts | 224° |
| 2026-05-05 16:36 | 52.28736 | 4.78751 | 485 ft | 114 kts | 225° |
| 2026-05-05 16:36 | 52.28223 | 4.77843 | 533 ft | 94 kts | 277° |
| 2026-05-05 16:36 | 52.28561 | 4.76854 | 436 ft | 109 kts | 327° |
| 2026-05-05 16:37 | 52.29254 | 4.77221 | 342 ft | 124 kts | 40° |
| 2026-05-05 16:37 | 52.29923 | 4.78232 | 103 ft | 136 kts | 38° |
| 2026-05-05 16:37 | 52.30640 | 4.79224 | 47 ft | 132 kts | 38° |
| 2026-05-05 16:37 | 52.31264 | 4.80157 | 199 ft | 105 kts | 50° |
| 2026-05-05 16:38 | 52.31039 | 4.81285 | 381 ft | 118 kts | 140° |
| 2026-05-05 16:38 | 52.30349 | 4.80847 | 495 ft | 118 kts | 220° |
| 2026-05-05 16:38 | 52.29681 | 4.79913 | 612 ft | 126 kts | 220° |
| 2026-05-05 16:38 | 52.28976 | 4.78949 | 649 ft | 134 kts | 224° |
| 2026-05-05 16:39 | 52.28260 | 4.77985 | 739 ft | 135 kts | 230° |
| 2026-05-05 16:39 | 52.28525 | 4.76796 | 540 ft | 136 kts | 342° |
| 2026-05-05 16:39 | 52.29383 | 4.77449 | 293 ft | 137 kts | 38° |
| 2026-05-05 16:39 | 52.30122 | 4.78493 | 35 ft | 141 kts | 39° |
| 2026-05-05 16:40 | 52.30830 | 4.79508 | 40 ft | 129 kts | 39° |
| 2026-05-05 16:40 | 52.30899 | 4.80427 | 423 ft | 99 kts | 124° |
| 2026-05-05 16:40 | 52.30263 | 4.80898 | 505 ft | 120 kts | 214° |
| 2026-05-05 16:40 | 52.29584 | 4.79908 | 501 ft | 132 kts | 226° |
| 2026-05-05 16:41 | 52.29559 | 4.78587 | 373 ft | 129 kts | 321° |
| 2026-05-05 16:41 | 52.30402 | 4.78868 | 124 ft | 138 kts | 40° |
| 2026-05-05 16:41 | 52.31097 | 4.79901 | 133 ft | 113 kts | 43° |
| 2026-05-05 16:41 | 52.31205 | 4.80759 | 353 ft | 95 kts | 124° |
| 2026-05-05 16:42 | 52.30615 | 4.81216 | 515 ft | 103 kts | 218° |
| 2026-05-05 16:42 | 52.29997 | 4.80333 | 440 ft | 129 kts | 224° |
| 2026-05-05 16:42 | 52.29310 | 4.79300 | 455 ft | 139 kts | 224° |
| 2026-05-05 16:42 | 52.28765 | 4.78130 | 575 ft | 127 kts | 285° |
| 2026-05-05 16:43 | 52.29551 | 4.77756 | 249 ft | 136 kts | 14° |
| 2026-05-05 16:43 | 52.30286 | 4.78720 | 49 ft | 136 kts | 39° |
| 2026-05-05 16:43 | 52.30988 | 4.79725 | 23 ft | 129 kts | 40° |
| 2026-05-05 16:43 | 52.31280 | 4.80663 | 344 ft | 100 kts | 118° |
| 2026-05-05 16:44 | 52.30691 | 4.81106 | 601 ft | 107 kts | 205° |
| 2026-05-05 16:44 | 52.29998 | 4.80333 | 619 ft | 127 kts | 220° |
| 2026-05-05 16:44 | 52.29270 | 4.79498 | 692 ft | 133 kts | 219° |
| 2026-05-05 16:44 | 52.28733 | 4.78335 | 596 ft | 134 kts | 290° |
| 2026-05-05 16:45 | 52.29550 | 4.77791 | 140 ft | 141 kts | 13° |
| 2026-05-05 16:45 | 52.30318 | 4.78765 | 22 ft | 136 kts | 40° |
| 2026-05-05 16:45 | 52.31007 | 4.79757 | 42 ft | 128 kts | 39° |
| 2026-05-05 16:45 | 52.31319 | 4.80720 | 318 ft | 108 kts | 119° |
| 2026-05-05 16:46 | 52.30668 | 4.80965 | 429 ft | 117 kts | 213° |
| 2026-05-05 16:46 | 52.30003 | 4.80013 | 342 ft | 122 kts | 246° |
| 2026-05-05 16:46 | 52.30267 | 4.79088 | 164 ft | 81 kts | 326° |
| 2026-05-05 16:46 | 52.30642 | 4.79241 | 6 ft | 47 kts | 36° |
| 2026-05-05 16:47 | 52.30887 | 4.79565 | -6 ft | 50 kts | 39° |
| 2026-05-05 16:47 | 52.31182 | 4.80076 | 128 ft | 64 kts | 89° |
| 2026-05-05 16:47 | 52.30795 | 4.80760 | 234 ft | 94 kts | 134° |
| 2026-05-05 16:47 | 52.30212 | 4.80277 | 326 ft | 105 kts | 230° |
| 2026-05-05 16:48 | 52.30123 | 4.79407 | 224 ft | 70 kts | 311° |
| 2026-05-05 16:48 | 52.30431 | 4.79029 | 101 ft | 56 kts | 355° |
| 2026-05-05 16:48 | 52.30738 | 4.79359 | -1 ft | 40 kts | 42° |
| 2026-05-05 16:48 | 52.30947 | 4.79731 | 94 ft | 55 kts | 88° |
| 2026-05-05 16:49 | 52.30623 | 4.80349 | 211 ft | 86 kts | 126° |
| 2026-05-05 16:49 | 52.30066 | 4.80333 | 438 ft | 100 kts | 215° |
| 2026-05-05 16:49 | 52.29462 | 4.79445 | 386 ft | 125 kts | 238° |
| 2026-05-05 16:49 | 52.29723 | 4.78443 | 342 ft | 87 kts | 326° |
| 2026-05-05 16:50 | 52.30220 | 4.78624 | 37 ft | 79 kts | 35° |
| 2026-05-05 16:50 | 52.30565 | 4.79106 | -6 ft | 52 kts | 40° |
| 2026-05-05 16:50 | 52.30895 | 4.79558 | 53 ft | 78 kts | 31° |
| 2026-05-05 16:50 | 52.31284 | 4.80265 | 302 ft | 84 kts | 67° |
| 2026-05-05 16:51 | 52.30935 | 4.81054 | 632 ft | 92 kts | 153° |
| 2026-05-05 16:51 | 52.30311 | 4.80417 | 644 ft | 122 kts | 218° |
| 2026-05-05 16:51 | 52.29635 | 4.79486 | 680 ft | 127 kts | 223° |
| 2026-05-05 16:51 | 52.29706 | 4.78433 | 383 ft | 90 kts | 325° |
| 2026-05-05 16:52 | 52.30268 | 4.78696 | 70 ft | 85 kts | 39° |
| 2026-05-05 16:52 | 52.30637 | 4.79207 | 4 ft | 54 kts | 45° |
| 2026-05-05 16:52 | 52.30915 | 4.79629 | 52 ft | 65 kts | 37° |
| 2026-05-05 16:52 | 52.31231 | 4.80166 | 299 ft | 73 kts | 45° |
| 2026-05-05 16:53 | 52.31078 | 4.81014 | 376 ft | 106 kts | 130° |
| 2026-05-05 16:53 | 52.30404 | 4.81254 | 539 ft | 117 kts | 201° |
| 2026-05-05 16:53 | 52.29743 | 4.80416 | 645 ft | 125 kts | 229° |
| 2026-05-05 16:53 | 52.29116 | 4.79398 | 727 ft | 130 kts | 224° |
| 2026-05-05 16:54 | 52.28772 | 4.78170 | 568 ft | 136 kts | 296° |
| 2026-05-05 16:54 | 52.29650 | 4.77875 | 111 ft | 137 kts | 27° |
| 2026-05-05 16:54 | 52.30379 | 4.78840 | 22 ft | 132 kts | 42° |
| 2026-05-05 16:54 | 52.31055 | 4.79809 | 38 ft | 125 kts | 42° |
| 2026-05-05 16:55 | 52.31305 | 4.80677 | 292 ft | 88 kts | 116° |
| 2026-05-05 16:55 | 52.30757 | 4.81239 | 384 ft | 114 kts | 198° |
| 2026-05-05 16:55 | 52.30196 | 4.80213 | 476 ft | 129 kts | 224° |
| 2026-05-05 16:55 | 52.29624 | 4.79111 | 439 ft | 120 kts | 263° |
| 2026-05-05 16:56 | 52.30040 | 4.78384 | 174 ft | 84 kts | 25° |
| 2026-05-05 16:56 | 52.30481 | 4.78986 | 1 ft | 68 kts | 43° |
| 2026-05-05 16:56 | 52.30774 | 4.79409 | -6 ft | 47 kts | 35° |
| 2026-05-05 16:56 | 52.31012 | 4.79723 | -6 ft | 40 kts | 37° |
| 2026-05-05 16:57 | 52.31165 | 4.79997 | -6 ft | 24 kts | 107° |
| 2026-05-05 16:57 | 52.31115 | 4.80138 | -6 ft | 11 kts | 128° |
| 2026-05-05 16:57 | 52.31071 | 4.80221 | -6 ft | 8 kts | 133° |
| 2026-05-05 16:57 | 52.31043 | 4.80301 | -6 ft | 7 kts | 66° |
| 2026-05-05 16:58 | 52.31074 | 4.80339 | -6 ft | 1 kts | 346° |
| 2026-05-05 16:58 | 52.31097 | 4.80300 | -6 ft | 2 kts | 310° |
| 2026-05-05 16:58 | 52.31099 | 4.80298 | -6 ft | 0 kts | 309° |